CheckWX is a tool to help pilots better visualize weather data.  It is not intended as a substitute for an official pre-flight weather briefing.

06:44:33 UTC

KBKX METAR
Brookings Regional Airport
Brookings, South Dakota, USA
Current

49 mins ago

KBKX 210556Z AUTO 09008KT 10SM BKN120 10/04 A3005 RMK AO2 SLP194 6//// T01000044 10128 20100 401390011 56007
Observed
May-21 @ 05:56 UTC
Wind
  • 090° at 8 KTS
Visibility
10 SM
Flight Rules
VFR
Cloud Levels
  • Broken at 12,000' AGL
Temperature
10°C / 50°F
Dewpoint
C / 39°F
Humidity
67%
Altimeter
30.05" Hg
Pressure
1017.62 hPa
Previous

2 hours ago

KBKX 210456Z AUTO 09007KT 10SM SCT120 10/04 A3005 RMK AO2 SLP196 T01000044
Observed
May-21 @ 04:56 UTC
Wind
  • 090° at 7 KTS
Visibility
10 SM
Flight Rules
VFR
Cloud Levels
  • Scattered at 12,000' AGL
Temperature
10°C / 50°F
Dewpoint
C / 39°F
Humidity
67%
Altimeter
30.05" Hg
Pressure
1017.62 hPa
Previous

3 hours ago

KBKX 210356Z AUTO 08006KT 10SM FEW120 10/05 A3007 RMK AO2 SLP201 T01000050
Observed
May-21 @ 03:56 UTC
Wind
  • 080° at 6 KTS
Visibility
10 SM
Flight Rules
VFR
Cloud Levels
  • Few at 12,000' AGL
Temperature
10°C / 50°F
Dewpoint
C / 41°F
Humidity
71%
Altimeter
30.07" Hg
Pressure
1018.32 hPa